Time;durP1;ratioP1;P1;durP2;ratioP2;P2;SDS_P1;SDS_P2;PMS_P1;PMS_P2;Temp;Humidity;BMP_temperature;BMP_pressure;BME280_temperature;BME280_humidity;BME280_pressure;Samples;Min_cycle;Max_cycle;Signal;HPM_P1;HPM_P2
2022/03/21 00:01:21;;;;;;;2.57;2.47;;;10.60;99.90;;;;;;5037264;28;20274;-63
2022/03/21 00:03:50;;;;;;;2.55;2.35;;;10.50;99.90;;;;;;5036326;28;20584;-65
2022/03/21 00:06:17;;;;;;;2.45;2.35;;;10.30;99.90;;;;;;5037364;28;20214;-65
2022/03/21 00:08:44;;;;;;;2.67;2.53;;;10.20;99.90;;;;;;5036447;28;20220;-63
2022/03/21 00:11:12;;;;;;;2.60;2.40;;;10.10;99.90;;;;;;5036924;28;20235;-63
2022/03/21 00:13:39;;;;;;;2.43;2.33;;;10.00;99.90;;;;;;5035697;28;20239;-63
2022/03/21 00:16:07;;;;;;;2.25;2.15;;;10.00;99.90;;;;;;5037008;28;20201;-66
2022/03/21 00:18:34;;;;;;;2.50;2.40;;;9.90;99.90;;;;;;5036933;28;20258;-63
2022/03/21 00:21:03;;;;;;;2.40;2.20;;;9.80;99.90;;;;;;5036893;28;20204;-63
2022/03/21 00:23:30;;;;;;;2.33;2.23;;;9.70;99.90;;;;;;5037048;28;20216;-64
2022/03/21 00:25:57;;;;;;;2.50;2.40;;;9.70;99.90;;;;;;5025209;28;20855;-64
2022/03/21 00:28:24;;;;;;;2.50;2.40;;;9.50;99.90;;;;;;5025574;28;20208;-64
2022/03/21 00:30:52;;;;;;;2.50;2.40;;;9.50;99.90;;;;;;5027091;28;20312;-64
2022/03/21 00:33:19;;;;;;;2.53;2.33;;;9.30;99.90;;;;;;5036371;28;20228;-64
2022/03/21 00:35:48;;;;;;;2.60;2.50;;;9.30;99.90;;;;;;5038107;28;20804;-64
2022/03/21 00:38:18;;;;;;;2.55;2.45;;;9.30;99.90;;;;;;5032691;28;20209;-64
2022/03/21 00:40:45;;;;;;;2.47;2.38;;;9.20;99.90;;;;;;5033411;28;20302;-64
2022/03/21 00:43:13;;;;;;;2.47;2.37;;;9.20;99.90;;;;;;5016510;28;20754;-64
2022/03/21 00:45:40;;;;;;;2.60;2.50;;;9.10;99.90;;;;;;5015524;28;20698;-65
2022/03/21 00:48:09;;;;;;;2.50;2.40;;;9.00;99.90;;;;;;5028883;28;20205;-66
2022/03/21 00:50:36;;;;;;;2.60;2.50;;;9.10;99.90;;;;;;5020143;28;20225;-64
2022/03/21 00:53:03;;;;;;;2.55;2.45;;;9.00;99.90;;;;;;5032602;28;20319;-64
2022/03/21 00:55:31;;;;;;;2.60;2.50;;;9.10;99.90;;;;;;5034161;28;20236;-64
2022/03/21 00:57:59;;;;;;;2.40;2.30;;;9.10;99.90;;;;;;5033670;28;20287;-66
2022/03/21 01:00:27;;;;;;;2.45;2.35;;;9.00;99.90;;;;;;5031418;28;20288;-64
2022/03/21 01:02:55;;;;;;;2.83;2.72;;;8.80;99.90;;;;;;5027220;28;20397;-65
2022/03/21 01:05:22;;;;;;;2.40;2.30;;;8.80;99.90;;;;;;5031532;28;20306;-64
2022/03/21 01:07:49;;;;;;;2.53;2.42;;;8.80;99.90;;;;;;5035800;28;20299;-64
2022/03/21 01:10:18;;;;;;;2.90;2.70;;;8.80;99.90;;;;;;5037451;28;20878;-66
2022/03/21 01:12:47;;;;;;;2.50;2.40;;;8.70;99.90;;;;;;5034982;28;20220;-64
2022/03/21 01:15:16;;;;;;;2.50;2.40;;;8.60;99.90;;;;;;5033477;28;20235;-64
2022/03/21 01:17:45;;;;;;;2.50;2.40;;;8.50;99.90;;;;;;5032692;28;20242;-66
2022/03/21 01:20:13;;;;;;;2.40;2.30;;;8.50;99.90;;;;;;5033196;28;20232;-65
2022/03/21 01:22:40;;;;;;;2.30;2.20;;;8.40;99.90;;;;;;5033086;28;20331;-62
2022/03/21 01:25:09;;;;;;;2.43;2.33;;;8.40;99.90;;;;;;5033394;28;20635;-65
2022/03/21 01:27:36;;;;;;;2.58;2.45;;;8.40;99.90;;;;;;5033259;28;20209;-65
2022/03/21 01:30:06;;;;;;;2.70;2.60;;;8.40;99.90;;;;;;5031283;28;20252;-66
2022/03/21 01:32:35;;;;;;;2.63;2.53;;;8.40;99.90;;;;;;5024341;28;20774;-64
2022/03/21 01:35:03;;;;;;;2.42;2.33;;;8.40;99.90;;;;;;5031351;28;20578;-62
2022/03/21 01:37:30;;;;;;;2.72;2.53;;;8.40;99.90;;;;;;5022431;28;20273;-64
2022/03/21 01:39:57;;;;;;;2.60;2.50;;;8.40;99.90;;;;;;5020113;28;20288;-64
2022/03/21 01:42:24;;;;;;;2.90;2.70;;;8.30;99.90;;;;;;5027037;28;20229;-62
2022/03/21 01:44:52;;;;;;;2.40;2.30;;;8.30;99.90;;;;;;5032852;28;20675;-66
2022/03/21 01:47:20;;;;;;;2.30;2.20;;;8.30;99.90;;;;;;5032423;28;20235;-65
2022/03/21 01:49:48;;;;;;;2.78;2.58;;;8.10;99.90;;;;;;5032384;28;20224;-64
2022/03/21 01:52:16;;;;;;;2.20;2.10;;;8.10;99.90;;;;;;5032870;28;20231;-64
2022/03/21 01:57:28;;;;;;;2.97;2.70;;;8.00;99.90;;;;;;5025559;28;20327;-64
2022/03/21 01:59:57;;;;;;;2.70;2.60;;;8.00;99.90;;;;;;5033040;28;20427;-63
2022/03/21 02:02:25;;;;;;;2.78;2.58;;;8.00;99.90;;;;;;5033190;28;20256;-64
2022/03/21 02:04:53;;;;;;;2.88;2.67;;;8.00;99.90;;;;;;5033811;28;20218;-66
2022/03/21 02:07:20;;;;;;;2.70;2.60;;;8.00;99.90;;;;;;5034678;28;20674;-63
2022/03/21 02:09:47;;;;;;;2.50;2.40;;;8.00;99.90;;;;;;5034102;28;20312;-64
2022/03/21 02:12:14;;;;;;;2.70;2.60;;;7.90;99.90;;;;;;5031932;28;20307;-64
2022/03/21 02:14:42;;;;;;;2.80;2.70;;;7.90;99.90;;;;;;5032462;28;20238;-66
2022/03/21 02:17:10;;;;;;;2.97;2.78;;;7.90;99.90;;;;;;5032556;28;20214;-62
2022/03/21 02:19:40;;;;;;;2.65;2.55;;;7.90;99.90;;;;;;5032697;28;20204;-64
2022/03/21 02:22:25;;;;;;;2.50;2.40;;;7.90;99.90;;;;;;5033786;28;20255;-64
2022/03/21 02:25:03;;;;;;;2.30;2.20;;;7.90;99.90;;;;;;5032640;28;20232;-65
2022/03/21 02:27:33;;;;;;;2.35;2.25;;;7.80;99.90;;;;;;5037864;28;20232;-67
2022/03/21 02:30:01;;;;;;;2.33;2.23;;;7.80;99.90;;;;;;5025418;28;20710;-67
2022/03/21 02:32:29;;;;;;;2.50;2.40;;;7.70;99.90;;;;;;5040613;28;20294;-63
2022/03/21 02:34:56;;;;;;;2.40;2.30;;;7.80;99.90;;;;;;5021509;28;20205;-63
2022/03/21 02:37:25;;;;;;;2.45;2.35;;;7.70;99.90;;;;;;5012689;28;20262;-63
2022/03/21 02:39:53;;;;;;;2.50;2.40;;;7.70;99.90;;;;;;5021862;28;20589;-65
2022/03/21 02:42:20;;;;;;;2.27;2.17;;;7.70;99.90;;;;;;5032090;28;20331;-64
2022/03/21 02:44:50;;;;;;;2.33;2.20;;;7.70;99.90;;;;;;5037191;28;20280;-63
2022/03/21 02:47:17;;;;;;;2.40;2.30;;;7.60;99.90;;;;;;5017235;28;20193;-62
2022/03/21 02:49:44;;;;;;;2.70;2.60;;;7.60;99.90;;;;;;5016745;28;20414;-64
2022/03/21 02:52:12;;;;;;;2.50;2.40;;;7.70;99.90;;;;;;5013590;28;20264;-64
2022/03/21 02:54:39;;;;;;;2.40;2.30;;;7.60;99.90;;;;;;5011805;28;20648;-65
2022/03/21 02:57:06;;;;;;;2.50;2.40;;;7.60;99.90;;;;;;5012343;28;20241;-64
2022/03/21 02:59:32;;;;;;;2.43;2.33;;;7.60;99.90;;;;;;5012011;28;20280;-65
2022/03/21 03:02:02;;;;;;;2.30;2.20;;;7.60;99.90;;;;;;5011728;28;20287;-64
2022/03/21 03:04:29;;;;;;;2.33;2.22;;;7.50;99.90;;;;;;5011879;28;20209;-63
2022/03/21 03:06:56;;;;;;;2.50;2.40;;;7.50;99.90;;;;;;5011766;28;20205;-62
2022/03/21 03:09:23;;;;;;;2.50;2.40;;;7.60;99.90;;;;;;5018110;28;20734;-63
2022/03/21 03:11:50;;;;;;;2.50;2.40;;;7.60;99.90;;;;;;5027864;28;20288;-66
2022/03/21 03:14:17;;;;;;;2.30;2.20;;;7.60;99.90;;;;;;5033902;28;20231;-65
2022/03/21 03:16:44;;;;;;;2.33;2.22;;;7.50;99.90;;;;;;5033130;28;20236;-64
2022/03/21 03:19:13;;;;;;;2.72;2.53;;;7.40;99.90;;;;;;5031678;28;20694;-64
2022/03/21 03:21:42;;;;;;;2.88;2.78;;;7.40;99.90;;;;;;5032053;28;20272;-65
2022/03/21 03:24:11;;;;;;;2.50;2.40;;;7.30;99.90;;;;;;5031683;28;20204;-64
2022/03/21 03:26:38;;;;;;;2.55;2.40;;;7.20;99.90;;;;;;5031070;28;20282;-64
2022/03/21 03:29:05;;;;;;;2.40;2.30;;;7.20;99.90;;;;;;5031883;28;20299;-64
2022/03/21 03:31:40;;;;;;;2.40;2.30;;;7.20;99.90;;;;;;5031169;28;20320;-64
2022/03/21 03:34:07;;;;;;;2.33;2.22;;;7.10;99.90;;;;;;5032419;28;20283;-64
2022/03/21 03:36:36;;;;;;;2.47;2.38;;;7.10;99.90;;;;;;5039687;28;20239;-64
2022/03/21 03:39:04;;;;;;;2.55;2.45;;;7.00;99.90;;;;;;5046447;28;20231;-64
2022/03/21 03:41:31;;;;;;;2.25;2.15;;;6.90;99.90;;;;;;5049540;28;20217;-65
2022/03/21 03:43:58;;;;;;;2.30;2.20;;;6.90;99.90;;;;;;5047309;28;20263;-63
2022/03/21 03:46:25;;;;;;;2.45;2.35;;;6.90;99.90;;;;;;5048050;28;20292;-63
2022/03/21 03:48:54;;;;;;;2.70;2.60;;;6.80;99.90;;;;;;5047870;28;20188;-63
2022/03/21 03:51:21;;;;;;;2.42;2.33;;;6.80;99.90;;;;;;5041585;28;20290;-64
2022/03/21 03:53:49;;;;;;;2.47;2.38;;;6.80;99.90;;;;;;5032246;28;20209;-65
2022/03/21 03:56:16;;;;;;;2.45;2.35;;;6.80;99.90;;;;;;5032327;28;20291;-64
2022/03/21 03:58:43;;;;;;;2.30;2.20;;;6.80;99.90;;;;;;5032058;28;20239;-64
2022/03/21 04:01:10;;;;;;;2.45;2.35;;;6.80;99.90;;;;;;5033287;28;20288;-66
2022/03/21 04:03:46;;;;;;;2.90;2.70;;;6.80;99.90;;;;;;5045095;28;20295;-65
2022/03/21 04:06:14;;;;;;;2.60;2.50;;;6.80;99.90;;;;;;5045321;28;20228;-64
2022/03/21 04:08:41;;;;;;;2.20;2.10;;;6.80;99.90;;;;;;5043777;28;20620;-65
2022/03/21 04:11:10;;;;;;;2.70;2.60;;;6.80;99.90;;;;;;5030449;28;20691;-64
2022/03/21 04:13:37;;;;;;;2.40;2.30;;;6.70;99.90;;;;;;5030877;28;20288;-63
2022/03/21 04:16:04;;;;;;;2.30;2.20;;;6.70;99.90;;;;;;5030984;28;20239;-66
2022/03/21 04:18:31;;;;;;;2.20;2.10;;;6.70;99.90;;;;;;5030239;28;20212;-62
2022/03/21 04:20:58;;;;;;;2.35;2.25;;;6.70;99.90;;;;;;5031852;28;20252;-63
2022/03/21 04:23:25;;;;;;;2.38;2.28;;;6.70;99.90;;;;;;5033711;28;20744;-63
2022/03/21 04:25:52;;;;;;;2.50;2.40;;;6.80;99.90;;;;;;5034772;28;20299;-65
2022/03/21 04:28:21;;;;;;;2.40;2.30;;;6.70;99.90;;;;;;5034174;28;20252;-63
2022/03/21 04:30:48;;;;;;;2.35;2.22;;;6.70;99.90;;;;;;5034279;28;20221;-66
2022/03/21 04:33:15;;;;;;;2.30;2.20;;;6.70;99.90;;;;;;5037598;28;20236;-65
2022/03/21 04:35:43;;;;;;;2.30;2.20;;;6.70;99.90;;;;;;5038797;28;20263;-64
2022/03/21 04:38:14;;;;;;;2.38;2.20;;;6.70;99.90;;;;;;5033970;28;20231;-62
2022/03/21 04:40:42;;;;;;;2.50;2.40;;;6.70;99.90;;;;;;5028889;28;20247;-63
2022/03/21 04:43:09;;;;;;;2.40;2.30;;;6.70;99.90;;;;;;5032704;28;20674;-66
2022/03/21 04:45:37;;;;;;;2.45;2.35;;;6.70;99.90;;;;;;5036323;28;20201;-63
2022/03/21 04:48:05;;;;;;;2.40;2.30;;;6.70;99.90;;;;;;5041743;28;20229;-64
2022/03/21 04:50:32;;;;;;;2.40;2.30;;;6.70;99.90;;;;;;5035554;28;20252;-65
2022/03/21 04:52:59;;;;;;;2.55;2.33;;;6.80;99.90;;;;;;5037064;28;20232;-63
2022/03/21 04:55:26;;;;;;;2.60;2.50;;;6.80;99.90;;;;;;5037225;28;20232;-63
2022/03/21 04:57:53;;;;;;;2.40;2.30;;;6.80;99.90;;;;;;5036440;28;20240;-65
2022/03/21 05:00:21;;;;;;;2.45;2.35;;;6.80;99.90;;;;;;5036237;28;20200;-64
2022/03/21 05:02:49;;;;;;;2.40;2.30;;;6.70;99.90;;;;;;5036040;28;20263;-66
2022/03/21 05:05:16;;;;;;;2.60;2.50;;;6.70;99.90;;;;;;5036723;28;20614;-64
2022/03/21 05:07:45;;;;;;;2.50;2.40;;;6.70;99.90;;;;;;5035231;28;20757;-64
2022/03/21 05:10:14;;;;;;;2.47;2.28;;;6.70;99.90;;;;;;5041306;28;20227;-64
2022/03/21 05:12:41;;;;;;;2.45;2.35;;;6.70;99.90;;;;;;5044325;28;20239;-64
2022/03/21 05:15:09;;;;;;;2.20;2.10;;;6.80;99.90;;;;;;5035832;28;20228;-63
2022/03/21 05:17:37;;;;;;;2.75;2.60;;;6.90;99.90;;;;;;5034618;28;20293;-64
2022/03/21 05:20:11;;;;;;;2.30;2.20;;;6.90;99.90;;;;;;5034185;28;20773;-63
2022/03/21 05:22:37;;;;;;;2.38;2.28;;;6.90;99.90;;;;;;5034368;28;20721;-64
2022/03/21 05:36:05;;;;;;;2.30;2.20;;;6.90;99.90;;;;;;5040947;28;20245;-64
2022/03/21 05:38:32;;;;;;;2.42;2.33;;;6.80;99.90;;;;;;5037105;28;20208;-64
2022/03/21 05:41:01;;;;;;;2.30;2.20;;;6.90;99.90;;;;;;5030227;28;20212;-65
2022/03/21 05:43:29;;;;;;;2.30;2.20;;;6.90;99.90;;;;;;5029519;28;20304;-64
2022/03/21 05:45:56;;;;;;;2.33;2.22;;;6.90;99.90;;;;;;5028392;28;20236;-63
2022/03/21 05:51:12;;;;;;;2.50;2.40;;;7.00;99.90;;;;;;5036871;28;20236;-70
2022/03/21 05:53:39;;;;;;;2.60;2.50;;;7.00;99.90;;;;;;5049715;28;20200;-69
2022/03/21 05:56:06;;;;;;;2.20;2.10;;;7.00;99.90;;;;;;5032589;28;20233;-67
2022/03/21 05:58:33;;;;;;;2.43;2.33;;;7.00;99.90;;;;;;5024863;28;20232;-67
2022/03/21 06:01:00;;;;;;;2.30;2.20;;;7.00;99.90;;;;;;5021067;28;20211;-69
2022/03/21 06:03:27;;;;;;;2.40;2.30;;;7.00;99.90;;;;;;5036862;28;20196;-68
2022/03/21 06:05:55;;;;;;;2.15;2.05;;;7.10;99.90;;;;;;5031141;28;20244;-68
2022/03/21 06:08:24;;;;;;;2.33;2.20;;;7.10;99.90;;;;;;5027446;28;20711;-68
2022/03/21 06:11:03;;;;;;;2.58;2.47;;;7.20;99.90;;;;;;5031978;28;20224;-68
2022/03/21 06:13:31;;;;;;;2.30;2.20;;;7.20;99.90;;;;;;5031526;28;20201;-69
2022/03/21 06:16:03;;;;;;;2.50;2.40;;;7.30;99.90;;;;;;5022562;28;20201;-69
2022/03/21 06:18:30;;;;;;;2.30;2.20;;;7.40;99.90;;;;;;5014468;28;20226;-69
2022/03/21 06:20:57;;;;;;;2.70;2.55;;;7.40;99.90;;;;;;5010248;28;20206;-66
2022/03/21 06:23:26;;;;;;;2.40;2.20;;;7.60;99.90;;;;;;5003205;28;20300;-69
2022/03/21 06:25:53;;;;;;;2.35;2.25;;;7.70;99.90;;;;;;5011773;28;20770;-68
2022/03/21 06:28:21;;;;;;;2.30;2.20;;;7.70;99.90;;;;;;5022787;28;20223;-68
2022/03/21 06:30:50;;;;;;;2.33;2.17;;;7.80;99.90;;;;;;5021928;28;20395;-66
2022/03/21 06:33:18;;;;;;;2.10;2.00;;;7.90;99.90;;;;;;5017106;28;20299;-66
2022/03/21 06:35:45;;;;;;;2.45;2.35;;;7.90;99.90;;;;;;5015394;28;20263;-68
2022/03/21 06:38:12;;;;;;;2.30;2.20;;;8.00;99.90;;;;;;5007649;28;20277;-69
2022/03/21 06:40:42;;;;;;;2.45;2.35;;;8.10;99.90;;;;;;5008792;28;20211;-67
2022/03/21 06:43:09;;;;;;;2.70;2.50;;;8.10;99.90;;;;;;5005308;28;20230;-67
2022/03/21 06:45:36;;;;;;;2.72;2.63;;;8.20;99.90;;;;;;5008436;28;20211;-68
2022/03/21 06:48:04;;;;;;;2.83;2.67;;;8.20;99.90;;;;;;5006793;28;20232;-69
2022/03/21 06:50:31;;;;;;;2.92;2.72;;;8.20;99.90;;;;;;5007528;28;20233;-68
2022/03/21 06:52:58;;;;;;;2.63;2.50;;;8.30;99.90;;;;;;5011285;28;20549;-68
2022/03/21 06:55:25;;;;;;;2.50;2.30;;;8.40;99.90;;;;;;4998547;28;20357;-68
2022/03/21 06:57:53;;;;;;;2.65;2.55;;;8.50;99.90;;;;;;5004493;28;20659;-66
2022/03/21 07:00:21;;;;;;;2.50;2.30;;;8.50;99.90;;;;;;5005583;28;20292;-68
2022/03/21 07:02:48;;;;;;;2.50;2.40;;;8.60;99.90;;;;;;5010836;28;20291;-69
2022/03/21 07:05:14;;;;;;;2.50;2.30;;;8.70;99.90;;;;;;5011910;28;20229;-70
2022/03/21 07:07:41;;;;;;;2.63;2.42;;;8.80;99.90;;;;;;5015976;28;20202;-68
2022/03/21 07:10:09;;;;;;;2.28;2.17;;;8.90;99.90;;;;;;5018391;28;20766;-67
2022/03/21 07:12:37;;;;;;;2.70;2.60;;;9.00;99.90;;;;;;5008511;28;20265;-68
2022/03/21 07:15:07;;;;;;;2.27;2.17;;;9.10;99.90;;;;;;5012121;28;20292;-68
2022/03/21 07:17:33;;;;;;;2.85;2.63;;;9.20;99.90;;;;;;5003713;28;20289;-68
2022/03/21 07:20:00;;;;;;;2.37;2.27;;;9.30;99.90;;;;;;5011479;28;20304;-67
2022/03/21 07:22:27;;;;;;;2.70;2.50;;;9.40;99.90;;;;;;5014883;28;20648;-68
2022/03/21 07:24:56;;;;;;;2.47;2.37;;;9.50;99.90;;;;;;5012239;28;20205;-69
2022/03/21 07:27:23;;;;;;;2.50;2.30;;;9.50;99.90;;;;;;5015231;28;20229;-67
2022/03/21 07:29:50;;;;;;;2.30;2.20;;;9.70;99.90;;;;;;5013978;28;20311;-67
2022/03/21 07:32:18;;;;;;;2.35;2.25;;;9.80;99.90;;;;;;5011911;28;20260;-68
2022/03/21 07:34:45;;;;;;;2.17;2.08;;;9.90;99.90;;;;;;5010698;28;20284;-67
2022/03/21 07:37:12;;;;;;;2.50;2.40;;;10.00;99.90;;;;;;5018655;28;20201;-68
2022/03/21 07:39:39;;;;;;;4.27;2.40;;;10.10;99.90;;;;;;5011209;28;20657;-68
2022/03/21 07:42:07;;;;;;;2.10;2.00;;;10.40;99.90;;;;;;5011253;28;20292;-68
2022/03/21 07:47:21;;;;;;;2.20;2.10;;;10.50;99.90;;;;;;5011171;28;20184;-68
2022/03/21 07:49:49;;;;;;;2.20;2.10;;;10.60;99.90;;;;;;5011421;28;20247;-68
2022/03/21 07:52:23;;;;;;;2.07;1.97;;;10.70;99.90;;;;;;5011532;28;20256;-68
2022/03/21 07:54:53;;;;;;;2.20;2.10;;;10.80;99.90;;;;;;5011693;28;20625;-67
2022/03/21 07:57:20;;;;;;;2.30;2.13;;;11.00;99.90;;;;;;5008594;28;20217;-68
2022/03/21 07:59:47;;;;;;;2.27;2.17;;;11.10;99.90;;;;;;5012718;28;20736;-69
2022/03/21 08:02:14;;;;;;;2.47;2.37;;;11.20;99.90;;;;;;5015182;28;20205;-68
2022/03/21 08:04:42;;;;;;;2.27;2.07;;;11.40;99.90;;;;;;5015221;28;20209;-68
2022/03/21 08:07:09;;;;;;;2.07;1.97;;;11.50;99.90;;;;;;5015154;28;20205;-66
2022/03/21 08:09:36;;;;;;;2.00;1.90;;;11.70;99.90;;;;;;5015074;28;20232;-68
2022/03/21 08:12:03;;;;;;;2.30;2.20;;;11.90;99.90;;;;;;5015291;28;20225;-67
2022/03/21 08:14:31;;;;;;;2.20;2.10;;;12.10;99.90;;;;;;5014966;28;20245;-67
2022/03/21 08:16:59;;;;;;;2.80;2.60;;;12.20;99.90;;;;;;5014702;28;20209;-68
2022/03/21 08:19:27;;;;;;;2.92;2.72;;;12.30;99.90;;;;;;5014191;28;20268;-68
2022/03/21 08:21:55;;;;;;;2.70;2.60;;;12.30;99.90;;;;;;5015160;28;20236;-68
2022/03/21 08:24:22;;;;;;;2.70;2.60;;;12.40;99.90;;;;;;5000616;28;20296;-68
2022/03/21 08:26:50;;;;;;;2.73;2.53;;;12.30;99.90;;;;;;4996368;28;20198;-66
2022/03/21 08:29:17;;;;;;;2.83;2.73;;;12.30;99.90;;;;;;5006353;28;20225;-67
2022/03/21 08:31:44;;;;;;;2.90;2.70;;;12.40;99.90;;;;;;5015352;28;20420;-67
2022/03/21 08:34:11;;;;;;;2.50;2.40;;;12.40;99.90;;;;;;5015640;28;20296;-67
2022/03/21 08:36:38;;;;;;;3.30;3.00;;;12.40;99.90;;;;;;5014708;28;20288;-67
2022/03/21 08:39:06;;;;;;;3.00;2.80;;;12.50;99.90;;;;;;5013954;28;20259;-69
2022/03/21 08:41:33;;;;;;;3.07;2.87;;;12.60;99.90;;;;;;5016482;28;20201;-67
2022/03/21 08:44:00;;;;;;;2.92;2.83;;;12.50;99.90;;;;;;5016125;28;20308;-69
2022/03/21 08:46:27;;;;;;;3.25;2.97;;;12.50;99.90;;;;;;5006027;28;20213;-66
2022/03/21 08:51:39;;;;;;;2.80;2.70;;;12.50;99.90;;;;;;4996634;28;20220;-67
2022/03/21 08:54:08;;;;;;;3.05;2.88;;;12.60;99.90;;;;;;4995289;28;20623;-67
2022/03/21 08:56:35;;;;;;;3.13;2.93;;;12.70;99.90;;;;;;4995099;28;20210;-68
2022/03/21 08:59:02;;;;;;;2.77;2.60;;;12.80;99.90;;;;;;4994805;28;20291;-66
2022/03/21 09:01:29;;;;;;;2.70;2.60;;;13.00;99.90;;;;;;5012456;28;20214;-69
2022/03/21 09:03:56;;;;;;;2.90;2.70;;;13.00;99.90;;;;;;5003015;28;20316;-67
2022/03/21 09:06:23;;;;;;;2.93;2.80;;;13.30;99.90;;;;;;5006018;28;20243;-69
2022/03/21 09:08:51;;;;;;;3.23;3.00;;;13.50;99.90;;;;;;5013797;28;20226;-67
2022/03/21 09:11:20;;;;;;;2.67;2.57;;;13.60;99.90;;;;;;4999561;28;20209;-69
2022/03/21 09:13:47;;;;;;;2.70;2.60;;;13.90;99.90;;;;;;4994001;28;20244;-67
2022/03/21 09:16:15;;;;;;;2.97;2.77;;;13.80;99.90;;;;;;4993370;28;20214;-67
2022/03/21 09:18:42;;;;;;;2.72;2.63;;;13.80;99.90;;;;;;4993036;28;20724;-68
2022/03/21 09:21:10;;;;;;;2.70;2.60;;;14.00;99.90;;;;;;4994622;28;20248;-69
2022/03/21 09:23:38;;;;;;;2.73;2.53;;;14.00;99.90;;;;;;4994348;28;20225;-68
2022/03/21 09:26:10;;;;;;;2.63;2.53;;;14.10;99.90;;;;;;4994675;28;20214;-68
2022/03/21 09:28:39;;;;;;;2.60;2.40;;;14.30;99.90;;;;;;4995668;28;20230;-68
2022/03/21 09:31:07;;;;;;;3.00;2.80;;;14.40;99.90;;;;;;4993693;28;20689;-66
2022/03/21 09:33:36;;;;;;;2.90;2.70;;;14.60;99.90;;;;;;5015706;28;20205;-67
2022/03/21 09:36:03;;;;;;;2.90;2.70;;;14.60;99.90;;;;;;5014848;28;20220;-67
2022/03/21 09:38:30;;;;;;;3.00;2.80;;;14.70;99.90;;;;;;4996128;28;20264;-67
2022/03/21 09:40:57;;;;;;;3.00;2.80;;;14.70;99.90;;;;;;4991127;28;20216;-68
2022/03/21 09:43:25;;;;;;;2.90;2.70;;;14.80;99.90;;;;;;4993350;28;20202;-66
2022/03/21 09:45:56;;;;;;;2.73;2.63;;;14.80;99.90;;;;;;4991042;28;20309;-67
2022/03/21 09:48:26;;;;;;;3.30;3.10;;;14.90;99.90;;;;;;4998086;28;20233;-67
2022/03/21 09:50:56;;;;;;;2.67;2.57;;;15.10;99.90;;;;;;5005126;28;20202;-68
2022/03/21 09:53:24;;;;;;;3.00;2.80;;;15.30;99.90;;;;;;5006175;28;20246;-69
2022/03/21 09:55:51;;;;;;;3.27;3.10;;;15.20;99.90;;;;;;4992208;28;20244;-68
2022/03/21 09:58:20;;;;;;;2.90;2.80;;;15.20;99.90;;;;;;4993487;28;20320;-68
2022/03/21 10:00:49;;;;;;;2.63;2.53;;;15.30;99.90;;;;;;4994069;28;20210;-69
2022/03/21 10:03:17;;;;;;;3.10;2.90;;;15.40;99.90;;;;;;5003453;28;20296;-67
2022/03/21 10:05:49;;;;;;;2.97;2.77;;;15.60;99.90;;;;;;5011301;28;20678;-68
2022/03/21 10:08:21;;;;;;;2.93;2.73;;;15.60;99.90;;;;;;5004963;28;20285;-68
2022/03/21 10:10:57;;;;;;;3.30;3.10;;;15.70;99.90;;;;;;5013103;28;20209;-69
2022/03/21 10:13:25;;;;;;;2.90;2.70;;;15.70;99.90;;;;;;5005633;28;20601;-68
2022/03/21 10:16:08;;;;;;;2.90;2.70;;;15.80;99.90;;;;;;4994266;28;20205;-67
2022/03/21 10:18:38;;;;;;;2.80;2.70;;;15.90;99.90;;;;;;4992957;28;20256;-70
2022/03/21 10:21:13;;;;;;;3.00;2.80;;;15.80;99.90;;;;;;4996204;28;20243;-70
2022/03/21 10:23:40;;;;;;;3.13;2.93;;;15.70;99.90;;;;;;5004410;28;20711;-68
2022/03/21 10:26:27;;;;;;;3.00;2.80;;;15.70;99.90;;;;;;5013710;28;20615;-68
2022/03/21 10:28:56;;;;;;;2.80;2.67;;;15.60;99.90;;;;;;5021565;28;20229;-69
2022/03/21 10:31:40;;;;;;;2.97;2.77;;;15.80;99.90;;;;;;5009524;28;20289;-67
2022/03/21 10:34:10;;;;;;;3.03;2.83;;;15.90;99.90;;;;;;4993565;28;20205;-69
2022/03/21 10:36:57;;;;;;;2.43;2.33;;;15.90;99.90;;;;;;4993353;28;20292;-68
2022/03/21 10:39:24;;;;;;;2.87;2.70;;;16.20;99.90;;;;;;4992585;28;20775;-68
2022/03/21 10:41:56;;;;;;;3.10;2.90;;;16.30;99.90;;;;;;4992504;28;20205;-68
2022/03/21 10:44:23;;;;;;;3.23;3.00;;;16.30;99.90;;;;;;4993755;28;20214;-68
2022/03/21 10:46:53;;;;;;;2.90;2.80;;;16.30;99.90;;;;;;4994013;28;20313;-69
2022/03/21 10:49:30;;;;;;;2.60;2.50;;;16.30;99.90;;;;;;4992876;28;21032;-69
2022/03/21 10:51:58;;;;;;;2.93;2.77;;;16.40;99.90;;;;;;5003185;28;20215;-68
2022/03/21 10:54:43;;;;;;;2.90;2.70;;;16.50;99.90;;;;;;5022980;28;20202;-69
2022/03/21 10:57:30;;;;;;;3.10;2.90;;;16.50;99.90;;;;;;5013854;28;20197;-68
2022/03/21 11:00:17;;;;;;;3.08;2.88;;;16.50;99.90;;;;;;5027896;28;20252;-68
2022/03/21 11:02:56;;;;;;;3.15;2.95;;;16.50;99.90;;;;;;5029014;28;20213;-69
2022/03/21 11:05:26;;;;;;;2.90;2.70;;;16.70;99.90;;;;;;5018812;28;20286;-70
2022/03/21 11:07:54;;;;;;;2.77;2.57;;;16.70;99.90;;;;;;4992183;28;20646;-70
2022/03/21 11:10:23;;;;;;;2.95;2.83;;;16.80;99.90;;;;;;4992685;28;20210;-69
2022/03/21 11:12:50;;;;;;;2.80;2.70;;;16.90;99.90;;;;;;4991698;28;20598;-67
2022/03/21 11:15:17;;;;;;;2.70;2.50;;;17.00;99.90;;;;;;4995274;28;20212;-70
2022/03/21 11:17:45;;;;;;;3.07;2.87;;;17.00;99.90;;;;;;5012976;28;20205;-68
2022/03/21 11:20:14;;;;;;;3.17;2.90;;;16.70;99.90;;;;;;5012575;28;20186;-69
2022/03/21 11:22:44;;;;;;;2.53;2.43;;;16.70;99.90;;;;;;5013517;28;20243;-67
2022/03/21 11:25:13;;;;;;;2.97;2.77;;;16.80;99.90;;;;;;5003673;28;20682;-69
2022/03/21 11:28:09;;;;;;;2.80;2.70;;;17.00;99.90;;;;;;4999037;28;20301;-68
2022/03/21 11:30:57;;;;;;;2.88;2.67;;;17.20;99.90;;;;;;4978690;28;20237;-68
2022/03/21 11:33:36;;;;;;;2.50;2.40;;;17.20;99.90;;;;;;5027476;28;20256;-69
2022/03/21 11:36:06;;;;;;;2.57;2.40;;;17.20;99.90;;;;;;5028593;28;20235;-69
2022/03/21 11:38:37;;;;;;;2.30;2.20;;;17.30;99.90;;;;;;5021836;28;20252;-69
2022/03/21 11:41:15;;;;;;;2.45;2.35;;;17.40;99.90;;;;;;5019318;28;20196;-70
2022/03/21 11:43:44;;;;;;;2.53;2.43;;;17.50;99.90;;;;;;5006441;28;20252;-68
2022/03/21 11:46:29;;;;;;;2.55;2.35;;;17.50;99.90;;;;;;5009200;28;20256;-69
2022/03/21 11:48:57;;;;;;;2.60;2.50;;;17.50;99.90;;;;;;5036758;23;20236;-66
2022/03/21 11:51:39;;;;;;;2.33;2.20;;;17.50;99.90;;;;;;5021948;28;20201;-67
2022/03/21 11:54:26;;;;;;;2.30;2.20;;;17.60;99.90;;;;;;5025196;28;20224;-64
2022/03/21 11:57:11;;;;;;;2.70;2.55;;;17.60;99.90;;;;;;5019940;28;20268;-66
2022/03/21 11:59:52;;;;;;;2.37;2.17;;;17.70;99.90;;;;;;5001287;28;20229;-65
2022/03/21 12:02:57;;;;;;;2.25;2.13;;;17.80;99.90;;;;;;4994301;28;20237;-64
2022/03/21 12:05:41;;;;;;;2.40;2.30;;;17.60;99.90;;;;;;5005249;28;20209;-65
2022/03/21 12:08:34;;;;;;;2.70;2.60;;;17.80;99.90;;;;;;5035402;28;20205;-65
2022/03/21 12:11:03;;;;;;;2.43;2.30;;;17.80;99.90;;;;;;5036404;28;20248;-64
2022/03/21 12:13:45;;;;;;;2.77;2.57;;;18.00;99.90;;;;;;5040231;28;20256;-65
2022/03/21 12:16:21;;;;;;;2.47;2.27;;;18.10;99.90;;;;;;5040870;28;20295;-65
2022/03/21 12:19:02;;;;;;;2.80;2.60;;;18.10;99.90;;;;;;5015794;28;20308;-65
2022/03/21 12:21:30;;;;;;;2.60;2.40;;;18.30;99.90;;;;;;5023604;28;20196;-66
2022/03/21 12:24:17;;;;;;;2.97;2.38;;;18.20;99.90;;;;;;5027307;28;20220;-66
2022/03/21 12:26:54;;;;;;;2.10;2.00;;;18.20;99.90;;;;;;5026553;28;20201;-65
2022/03/21 12:29:34;;;;;;;2.33;2.23;;;18.10;99.90;;;;;;5025339;28;20225;-66
2022/03/21 12:32:24;;;;;;;2.40;2.30;;;18.10;99.90;;;;;;5018207;28;20209;-65
2022/03/21 12:34:51;;;;;;;3.00;2.80;;;18.20;99.90;;;;;;5012862;28;20201;-66
2022/03/21 12:37:28;;;;;;;2.47;2.38;;;18.20;99.90;;;;;;5013030;28;20296;-65
2022/03/21 12:39:57;;;;;;;2.47;2.28;;;18.30;99.90;;;;;;5012064;28;20221;-65
2022/03/21 12:42:29;;;;;;;2.50;2.40;;;18.30;99.90;;;;;;5013106;28;20288;-64
2022/03/21 12:44:56;;;;;;;2.50;2.40;;;18.40;99.90;;;;;;5018774;28;20210;-66
2022/03/21 12:47:24;;;;;;;2.53;2.40;;;18.30;99.90;;;;;;5024200;28;20209;-66
2022/03/21 12:49:51;;;;;;;2.50;2.40;;;18.20;99.90;;;;;;5024728;28;20233;-66
2022/03/21 12:52:29;;;;;;;2.23;2.13;;;18.30;99.90;;;;;;5026565;28;20252;-64
2022/03/21 12:54:56;;;;;;;2.70;2.50;;;18.30;99.90;;;;;;5022960;28;20205;-65
2022/03/21 12:57:23;;;;;;;2.70;2.53;;;18.50;99.90;;;;;;5020315;28;20285;-64
2022/03/21 12:59:52;;;;;;;2.50;2.40;;;18.60;99.90;;;;;;5016924;28;20256;-65
2022/03/21 13:02:25;;;;;;;2.45;2.35;;;18.60;99.90;;;;;;5012406;28;20608;-65
2022/03/21 13:10:33;;;;;;;2.47;2.38;;;18.70;99.90;;;;;;4999974;28;20264;-65
2022/03/21 13:13:00;;;;;;;2.90;2.70;;;18.90;99.90;;;;;;4997641;28;20313;-65
2022/03/21 13:15:29;;;;;;;2.85;2.60;;;18.90;99.90;;;;;;5007736;28;20208;-64
2022/03/21 13:18:01;;;;;;;2.80;2.60;;;19.00;99.90;;;;;;5009157;28;20308;-64
2022/03/21 13:20:31;;;;;;;3.00;2.90;;;19.00;99.90;;;;;;5013199;28;20229;-64
2022/03/21 13:23:00;;;;;;;3.25;3.05;;;19.00;99.90;;;;;;5013328;28;20525;-64
2022/03/21 13:25:29;;;;;;;3.10;2.90;;;18.80;99.90;;;;;;5016880;28;20211;-66
2022/03/21 13:28:11;;;;;;;3.38;3.17;;;18.80;99.90;;;;;;5002383;28;20306;-65
2022/03/21 13:30:55;;;;;;;3.25;3.08;;;18.60;99.90;;;;;;5012383;28;20713;-64
2022/03/21 13:33:22;;;;;;;3.00;2.80;;;18.70;99.90;;;;;;5009270;28;20689;-64